createdAt,value
2019-02-17T00:00:26.314Z,58.98
2019-02-17T00:02:54.770Z,51.02
2019-02-17T00:05:23.259Z,50.40
2019-02-17T00:07:51.786Z,59.23
2019-02-17T00:10:20.327Z,55.55
2019-02-17T00:12:48.800Z,61.48
2019-02-17T00:15:18.074Z,55.00
2019-02-17T00:17:46.529Z,58.15
2019-02-17T00:20:14.951Z,59.90
2019-02-17T00:22:43.430Z,67.00
2019-02-17T00:25:11.961Z,63.45
2019-02-17T00:27:40.418Z,75.32
2019-02-17T00:30:12.772Z,63.40
2019-02-17T00:32:41.275Z,57.45
2019-02-17T00:35:10.171Z,64.45
2019-02-17T00:37:38.597Z,81.60
2019-02-17T00:40:08.196Z,63.30
2019-02-17T00:42:37.114Z,74.22
2019-02-17T00:45:07.527Z,56.55
2019-02-17T00:47:36.003Z,53.48
2019-02-17T00:50:06.783Z,53.90
2019-02-17T00:52:35.218Z,62.67
2019-02-17T00:55:04.438Z,54.25
2019-02-17T00:57:32.869Z,56.55
2019-02-17T01:00:01.346Z,54.80
2019-02-17T01:02:29.794Z,51.42
2019-02-17T01:04:58.243Z,52.95
2019-02-17T01:07:26.911Z,46.53
2019-02-17T01:09:55.383Z,52.67
2019-02-17T01:12:23.803Z,67.32
2019-02-17T01:14:52.263Z,59.88
2019-02-17T01:17:20.699Z,61.58
2019-02-17T01:19:49.151Z,66.40
2019-02-17T01:22:18.882Z,62.25
2019-02-17T01:24:47.395Z,61.35
2019-02-17T01:27:15.827Z,65.08
2019-02-17T01:29:44.287Z,74.27
2019-02-17T01:32:12.733Z,59.83
2019-02-17T01:34:41.179Z,64.55
2019-02-17T01:37:09.602Z,64.03
2019-02-17T01:39:38.046Z,77.30
2019-02-17T01:42:06.478Z,64.72
2019-02-17T01:44:34.927Z,54.65
2019-02-17T01:47:03.371Z,62.33
2019-02-17T01:49:31.821Z,67.25
2019-02-17T01:52:00.520Z,61.45
2019-02-17T01:54:28.990Z,60.83
2019-02-17T01:56:57.492Z,65.37
2019-02-17T01:59:30.600Z,64.55
2019-02-17T02:01:56.080Z,54.35
2019-02-17T02:04:24.546Z,54.15
2019-02-17T02:06:52.988Z,63.52
2019-02-17T02:09:21.412Z,53.17
2019-02-17T02:11:49.927Z,59.15
2019-02-17T02:14:18.367Z,52.08
2019-02-17T02:16:46.802Z,57.73
2019-02-17T02:19:15.235Z,57.15
2019-02-17T02:21:43.691Z,55.30
2019-02-17T02:24:12.115Z,54.25
2019-02-17T02:26:40.590Z,47.33
2019-02-17T02:29:09.022Z,51.13
2019-02-17T02:31:37.454Z,48.33
2019-02-17T02:34:05.897Z,53.85
2019-02-17T02:36:34.418Z,54.53
2019-02-17T02:39:04.214Z,48.63
2019-02-17T02:41:34.982Z,63.23
2019-02-17T02:44:02.874Z,58.08
2019-02-17T02:46:31.327Z,56.83
2019-02-17T02:48:59.777Z,54.60
2019-02-17T02:51:28.213Z,52.25
2019-02-17T02:53:56.635Z,53.05
2019-02-17T02:56:25.107Z,64.05
2019-02-17T02:58:53.539Z,61.75
2019-02-17T03:01:21.984Z,59.05
2019-02-17T03:03:50.421Z,56.18
2019-02-17T03:06:23.330Z,58.08
2019-02-17T03:08:51.765Z,67.97
2019-02-17T03:11:20.192Z,60.03
2019-02-17T03:13:48.640Z,67.60
2019-02-17T03:16:17.077Z,90.57
2019-02-17T03:18:45.548Z,79.60
2019-02-17T03:21:13.975Z,79.12
2019-02-17T03:23:42.422Z,78.33
2019-02-17T03:26:10.853Z,78.80
2019-02-17T03:28:39.302Z,69.32
2019-02-17T03:31:07.729Z,77.55
2019-02-17T03:33:36.174Z,78.20
2019-02-17T03:36:04.598Z,72.97
2019-02-17T03:38:33.062Z,82.60
2019-02-17T03:41:01.827Z,69.30
2019-02-17T03:43:30.268Z,64.30
2019-02-17T03:45:58.727Z,60.25
2019-02-17T03:48:27.152Z,74.82
2019-02-17T03:50:55.591Z,69.20
2019-02-17T03:53:24.057Z,74.47
2019-02-17T03:55:52.486Z,66.17
2019-02-17T03:58:20.937Z,68.55
2019-02-17T04:00:49.361Z,68.55
2019-02-17T04:03:17.829Z,65.90
2019-02-17T04:05:46.265Z,63.45
2019-02-17T04:08:14.695Z,57.78
2019-02-17T04:10:43.138Z,65.55
2019-02-17T04:13:11.563Z,59.83
2019-02-17T04:15:40.021Z,63.17
2019-02-17T04:18:08.437Z,69.77
2019-02-17T04:20:36.904Z,59.05
2019-02-17T04:23:05.368Z,67.25
2019-02-17T04:25:33.855Z,63.48
2019-02-17T04:28:02.351Z,58.60
2019-02-17T04:30:30.778Z,65.28
2019-02-17T04:32:59.207Z,61.90
2019-02-17T04:35:27.735Z,59.60
2019-02-17T04:37:56.160Z,61.85
2019-02-17T04:40:24.620Z,60.12
2019-02-17T04:42:52.718Z,67.97
2019-02-17T04:45:20.842Z,58.40
2019-02-17T04:47:49.281Z,58.70
2019-02-17T04:50:17.727Z,62.55
2019-02-17T04:52:46.152Z,63.52
2019-02-17T04:55:14.607Z,59.53
2019-02-17T04:57:43.030Z,54.95
2019-02-17T05:00:11.627Z,48.28
2019-02-17T05:02:40.064Z,54.65
2019-02-17T05:05:08.802Z,54.00
2019-02-17T05:07:37.281Z,70.37
2019-02-17T05:10:06.530Z,63.05
2019-02-17T05:12:34.991Z,58.58
2019-02-17T05:15:03.898Z,72.50
2019-02-17T05:17:32.343Z,65.62
2019-02-17T05:20:00.772Z,64.05
2019-02-17T05:22:29.234Z,77.60
2019-02-17T05:24:57.646Z,66.92
2019-02-17T05:27:26.118Z,61.40
2019-02-17T05:29:54.692Z,64.67
2019-02-17T05:32:23.136Z,62.45
2019-02-17T05:34:51.576Z,56.00
2019-02-17T05:37:20.031Z,63.33
2019-02-17T05:39:48.450Z,59.33
2019-02-17T05:42:16.915Z,59.38
2019-02-17T05:44:45.340Z,59.13
2019-02-17T05:47:13.854Z,69.85
2019-02-17T05:49:42.281Z,57.83
2019-02-17T05:52:10.752Z,59.65
2019-02-17T05:54:39.256Z,59.25
2019-02-17T05:57:07.695Z,60.05
2019-02-17T05:59:36.135Z,62.75
2019-02-17T06:02:04.563Z,59.67
2019-02-17T06:04:33.023Z,61.92
2019-02-17T06:07:01.452Z,48.95
2019-02-17T06:09:30.967Z,55.50
2019-02-17T06:11:59.438Z,63.45
2019-02-17T06:14:27.888Z,58.90
2019-02-17T06:16:56.327Z,58.58
2019-02-17T06:19:24.966Z,56.50
2019-02-17T06:21:53.391Z,51.05
2019-02-17T06:24:21.839Z,54.33
2019-02-17T06:26:50.262Z,56.37
2019-02-17T06:29:18.722Z,49.70
2019-02-17T06:31:47.149Z,52.62
2019-02-17T06:34:15.590Z,62.43
2019-02-17T06:36:44.037Z,61.85
2019-02-17T06:39:12.473Z,62.48
2019-02-17T06:41:40.889Z,64.35
2019-02-17T06:44:09.343Z,78.00
2019-02-17T06:46:39.408Z,63.73
2019-02-17T06:49:07.840Z,65.42
2019-02-17T06:51:36.282Z,78.75
2019-02-17T06:54:04.708Z,78.67
2019-02-17T06:56:40.819Z,108.63
2019-02-17T06:59:09.249Z,106.05
2019-02-17T07:01:37.703Z,97.80
2019-02-17T07:04:06.215Z,86.08
2019-02-17T07:06:36.321Z,104.90
2019-02-17T07:09:06.227Z,84.50
2019-02-17T07:11:34.673Z,88.87
2019-02-17T07:14:04.639Z,101.00
2019-02-17T07:16:33.087Z,99.40
2019-02-17T07:19:01.519Z,92.53
2019-02-17T07:21:30.079Z,90.38
2019-02-17T07:23:58.603Z,96.75
2019-02-17T07:26:27.048Z,77.40
2019-02-17T07:28:55.479Z,99.70
2019-02-17T07:31:23.932Z,81.20
2019-02-17T07:33:52.370Z,87.25
2019-02-17T07:36:22.042Z,82.70
2019-02-17T07:38:50.692Z,82.08
2019-02-17T07:41:19.233Z,80.53
2019-02-17T07:43:47.674Z,83.45
2019-02-17T07:46:16.115Z,74.82
2019-02-17T07:48:44.547Z,78.35
2019-02-17T07:51:12.994Z,79.22
2019-02-17T07:53:41.522Z,64.10
2019-02-17T07:56:09.975Z,81.02
2019-02-17T07:58:38.428Z,81.35
2019-02-17T08:01:07.386Z,81.42
2019-02-17T08:03:35.942Z,76.85
2019-02-17T08:06:04.448Z,76.50
2019-02-17T08:08:32.890Z,80.42
2019-02-17T08:11:03.930Z,72.47
2019-02-17T08:13:31.583Z,88.90
2019-02-17T08:16:00.007Z,89.17
2019-02-17T08:18:28.451Z,81.08
2019-02-17T08:20:56.885Z,75.50
2019-02-17T08:23:25.342Z,78.52
2019-02-17T08:25:53.776Z,80.75
2019-02-17T08:28:22.227Z,73.75
2019-02-17T08:30:50.651Z,78.57
2019-02-17T08:33:19.107Z,86.97
2019-02-17T08:35:47.559Z,71.87
2019-02-17T08:38:15.991Z,78.50
2019-02-17T08:40:44.423Z,74.62
2019-02-17T08:43:12.894Z,69.27
2019-02-17T08:45:41.325Z,68.02
2019-02-17T08:48:09.791Z,65.75
2019-02-17T08:50:38.206Z,67.25
2019-02-17T08:53:06.671Z,65.35
2019-02-17T08:55:35.100Z,59.50
2019-02-17T08:58:03.535Z,48.38
2019-02-17T09:00:31.989Z,56.92
2019-02-17T09:03:00.398Z,61.13
2019-02-17T09:05:28.847Z,54.65
2019-02-17T09:07:57.283Z,54.60
2019-02-17T09:10:25.733Z,46.80
2019-02-17T09:12:54.181Z,48.48
2019-02-17T09:15:22.653Z,55.08
2019-02-17T09:17:51.160Z,44.53
2019-02-17T09:20:19.600Z,48.63
2019-02-17T09:22:48.098Z,46.00
2019-02-17T09:25:17.629Z,45.28
2019-02-17T09:27:46.059Z,48.10
2019-02-17T09:30:16.642Z,43.75
2019-02-17T09:32:45.084Z,42.88
2019-02-17T09:35:13.607Z,37.10
2019-02-17T09:37:42.026Z,46.30
2019-02-17T09:40:12.029Z,44.30
2019-02-17T09:42:40.462Z,43.42
2019-02-17T09:45:13.895Z,45.58
2019-02-17T09:47:42.327Z,35.63
2019-02-17T09:50:14.563Z,43.20
2019-02-17T09:52:42.990Z,41.25
2019-02-17T09:55:11.722Z,38.28
2019-02-17T09:57:40.164Z,39.08
2019-02-17T10:00:11.320Z,41.35
2019-02-17T10:02:39.905Z,45.90
2019-02-17T10:05:10.188Z,38.90
2019-02-17T10:07:38.640Z,41.60
2019-02-17T10:10:14.998Z,45.17
2019-02-17T10:12:43.471Z,37.98
2019-02-17T10:15:13.355Z,39.53
2019-02-17T10:17:41.861Z,36.27
2019-02-17T10:20:15.606Z,39.53
2019-02-17T10:22:44.070Z,39.30
2019-02-17T10:25:12.592Z,38.77
2019-02-17T10:27:41.037Z,43.53
2019-02-17T10:30:14.284Z,39.20
2019-02-17T10:32:42.815Z,31.70
2019-02-17T10:35:11.337Z,38.63
2019-02-17T10:37:39.786Z,33.00
2019-02-17T10:40:14.196Z,34.10
2019-02-17T10:42:42.654Z,39.70
2019-02-17T10:45:11.736Z,33.90
2019-02-17T10:47:40.183Z,32.90
2019-02-17T10:50:10.972Z,35.20
2019-02-17T10:52:39.439Z,31.03
2019-02-17T10:55:09.822Z,34.37
2019-02-17T10:57:38.275Z,30.47
2019-02-17T11:00:11.426Z,30.63
2019-02-17T11:02:46.716Z,30.90
2019-02-17T11:05:11.387Z,32.33
2019-02-17T11:07:39.857Z,31.20
2019-02-17T11:10:10.456Z,32.17
2019-02-17T11:12:38.945Z,40.53
2019-02-17T11:15:10.831Z,33.73
2019-02-17T11:17:39.399Z,33.80
2019-02-17T11:20:08.583Z,32.20
2019-02-17T11:22:37.030Z,36.37
2019-02-17T11:25:05.914Z,30.10
2019-02-17T11:27:34.359Z,33.33
2019-02-17T11:30:05.404Z,33.47
2019-02-17T11:32:33.622Z,31.03
2019-02-17T11:35:02.160Z,29.93
2019-02-17T11:37:30.568Z,33.37
2019-02-17T11:39:59.116Z,32.30
2019-02-17T11:42:27.578Z,33.70
2019-02-17T11:44:56.238Z,28.87
2019-02-17T11:47:24.935Z,28.30
2019-02-17T11:49:53.400Z,29.87
2019-02-17T11:52:21.837Z,30.17
2019-02-17T11:54:50.266Z,28.60
2019-02-17T11:57:18.722Z,30.50
2019-02-17T11:59:47.239Z,28.83
2019-02-17T12:02:24.641Z,28.37
2019-02-17T12:04:45.944Z,28.37
2019-02-17T12:07:14.378Z,26.37
2019-02-17T12:09:42.974Z,34.13
2019-02-17T12:12:13.612Z,28.10
2019-02-17T12:14:41.622Z,26.90
2019-02-17T12:17:10.078Z,25.93
2019-02-17T12:19:38.522Z,27.90
2019-02-17T12:22:08.636Z,25.90
2019-02-17T12:24:38.913Z,26.70
2019-02-17T12:27:09.146Z,28.63
2019-02-17T12:29:48.561Z,29.50
2019-02-17T12:32:18.802Z,26.90
2019-02-17T12:34:47.245Z,25.60
2019-02-17T12:37:15.698Z,22.50
2019-02-17T12:39:44.284Z,28.13
2019-02-17T12:42:12.844Z,23.93
2019-02-17T12:44:41.285Z,22.33
2019-02-17T12:47:09.739Z,22.83
2019-02-17T12:49:38.165Z,23.10
2019-02-17T12:52:06.639Z,24.13
2019-02-17T12:54:35.070Z,24.33
2019-02-17T12:57:03.607Z,25.27
2019-02-17T12:59:32.198Z,26.87
2019-02-17T13:02:00.660Z,24.00
2019-02-17T13:04:29.092Z,24.90
2019-02-17T13:06:57.547Z,26.73
2019-02-17T13:09:26.006Z,21.87
2019-02-17T13:11:54.430Z,24.80
2019-02-17T13:14:22.895Z,24.90
2019-02-17T13:16:51.331Z,24.87
2019-02-17T13:19:19.796Z,21.73
2019-02-17T13:21:48.314Z,22.27
2019-02-17T13:24:16.770Z,24.47
2019-02-17T13:26:45.210Z,21.30
2019-02-17T13:29:13.674Z,21.03
2019-02-17T13:31:42.111Z,20.90
2019-02-17T13:34:10.577Z,22.33
2019-02-17T13:36:39.005Z,21.67
2019-02-17T13:39:07.462Z,20.13
2019-02-17T13:41:35.880Z,18.40
2019-02-17T13:44:04.566Z,23.73
2019-02-17T13:46:32.996Z,22.13
2019-02-17T13:49:01.454Z,16.93
2019-02-17T13:51:29.882Z,22.93
2019-02-17T13:53:58.342Z,22.10
2019-02-17T13:56:26.780Z,18.73
2019-02-17T13:58:55.245Z,21.87
2019-02-17T14:01:23.673Z,20.23
2019-02-17T14:03:52.124Z,22.53
2019-02-17T14:06:20.564Z,21.90
2019-02-17T14:08:49.028Z,17.97
2019-02-17T14:11:17.498Z,19.70
2019-02-17T14:13:46.015Z,19.67
2019-02-17T14:16:14.442Z,20.93
2019-02-17T14:18:42.912Z,21.30
2019-02-17T14:21:11.354Z,23.47
2019-02-17T14:23:39.792Z,23.47
2019-02-17T14:26:08.589Z,17.63
2019-02-17T14:28:37.081Z,19.00
2019-02-17T14:31:06.532Z,19.43
2019-02-17T14:33:35.038Z,22.27
2019-02-17T14:36:03.663Z,18.20
2019-02-17T14:38:32.113Z,21.83
2019-02-17T14:41:00.573Z,21.20
2019-02-17T14:43:29.003Z,19.60
2019-02-17T14:45:57.469Z,18.43
2019-02-17T14:48:25.967Z,21.40
2019-02-17T14:50:54.447Z,16.67
2019-02-17T14:53:22.878Z,19.63
2019-02-17T14:55:51.364Z,17.90
2019-02-17T14:58:19.800Z,18.23
2019-02-17T15:00:48.280Z,20.40
2019-02-17T15:03:16.763Z,20.37
2019-02-17T15:05:45.219Z,17.47
2019-02-17T15:08:13.686Z,19.07
2019-02-17T15:10:42.119Z,19.77
2019-02-17T15:13:10.570Z,23.53
2019-02-17T15:15:39.031Z,19.53
2019-02-17T15:18:07.483Z,20.90
2019-02-17T15:20:35.920Z,19.07
2019-02-17T15:23:04.396Z,21.80
2019-02-17T15:25:32.833Z,19.80
2019-02-17T15:28:01.283Z,20.53
2019-02-17T15:30:29.739Z,20.23
2019-02-17T15:33:04.167Z,26.90
2019-02-17T15:35:28.536Z,20.40
2019-02-17T15:37:56.992Z,19.10
2019-02-17T15:40:25.489Z,20.43
2019-02-17T15:42:53.958Z,23.50
2019-02-17T15:45:22.394Z,19.87
2019-02-17T15:47:50.842Z,21.33
2019-02-17T15:50:19.274Z,26.00
2019-02-17T15:52:47.736Z,20.40
2019-02-17T15:55:16.157Z,15.80
2019-02-17T15:57:44.585Z,17.73
2019-02-17T16:00:18.014Z,16.37
2019-02-17T16:02:46.563Z,17.53
2019-02-17T16:05:15.068Z,19.40
2019-02-17T16:07:43.645Z,19.73
2019-02-17T16:10:16.481Z,13.77
2019-02-17T16:12:44.990Z,14.17
2019-02-17T16:15:19.109Z,17.23
2019-02-17T16:17:47.531Z,15.40
2019-02-17T16:20:16.048Z,11.40
2019-02-17T16:22:44.496Z,13.63
2019-02-17T16:25:13.029Z,15.50
2019-02-17T16:27:41.483Z,12.23
2019-02-17T16:30:20.151Z,12.10
2019-02-17T16:32:48.642Z,17.23
2019-02-17T16:35:17.153Z,17.73
2019-02-17T16:37:45.611Z,16.27
2019-02-17T16:40:16.402Z,11.10
2019-02-17T16:42:44.972Z,18.60
2019-02-17T16:45:16.466Z,13.10
2019-02-17T16:47:45.382Z,19.93
2019-02-17T16:50:24.998Z,15.30
2019-02-17T16:52:53.434Z,16.60
2019-02-17T16:55:21.951Z,17.30
2019-02-17T16:57:50.389Z,22.70
2019-02-17T17:00:23.367Z,13.47
2019-02-17T17:02:53.835Z,14.87
2019-02-17T17:05:23.310Z,15.40
2019-02-17T17:07:51.929Z,14.87
2019-02-17T17:10:20.616Z,12.50
2019-02-17T17:12:49.255Z,21.60
2019-02-17T17:15:18.102Z,17.82
2019-02-17T17:17:46.666Z,16.82
2019-02-17T17:20:22.327Z,16.07
2019-02-17T17:22:50.915Z,17.80
2019-02-17T17:25:19.721Z,12.07
2019-02-17T17:27:48.179Z,14.63
2019-02-17T17:30:18.617Z,13.55
2019-02-17T17:32:47.074Z,15.68
2019-02-17T17:35:15.560Z,14.30
2019-02-17T17:37:44.080Z,17.85
2019-02-17T17:40:14.725Z,17.10
2019-02-17T17:42:43.178Z,16.10
2019-02-17T17:45:16.832Z,18.27
2019-02-17T17:47:45.267Z,13.45
2019-02-17T17:50:15.030Z,15.35
2019-02-17T17:52:43.490Z,17.55
2019-02-17T17:55:13.182Z,15.38
2019-02-17T17:57:41.858Z,18.12
2019-02-17T18:00:16.505Z,16.75
2019-02-17T18:02:44.956Z,13.03
2019-02-17T18:05:13.638Z,15.75
2019-02-17T18:07:42.082Z,15.53
2019-02-17T18:10:12.763Z,15.60
2019-02-17T18:12:41.220Z,16.30
2019-02-17T18:15:12.188Z,16.10
2019-02-17T18:17:40.610Z,13.05
2019-02-17T18:20:12.234Z,15.50
2019-02-17T18:22:40.663Z,12.50
2019-02-17T18:25:11.579Z,15.03
2019-02-17T18:27:40.016Z,16.60
2019-02-17T18:30:11.688Z,14.47
2019-02-17T18:32:40.175Z,18.87
2019-02-17T18:35:18.830Z,19.12
2019-02-17T18:37:39.243Z,22.82
2019-02-17T18:40:18.285Z,16.48
2019-02-17T18:42:46.774Z,19.25
2019-02-17T18:45:16.376Z,16.50
2019-02-17T18:47:44.887Z,16.87
2019-02-17T18:50:17.522Z,16.00
2019-02-17T18:52:45.966Z,18.52
2019-02-17T18:55:14.939Z,15.65
2019-02-17T18:57:50.216Z,17.25
2019-02-17T19:00:16.456Z,18.15
2019-02-17T19:02:44.882Z,17.07
2019-02-17T19:05:13.456Z,16.62
2019-02-17T19:07:41.876Z,15.15
2019-02-17T19:10:14.647Z,17.23
2019-02-17T19:12:43.303Z,17.67
2019-02-17T19:15:14.266Z,18.07
2019-02-17T19:17:42.691Z,21.80
2019-02-17T19:20:14.132Z,23.45
2019-02-17T19:22:42.557Z,20.27
2019-02-17T19:25:11.036Z,18.05
2019-02-17T19:27:39.467Z,21.50
2019-02-17T19:30:15.513Z,16.67
2019-02-17T19:32:44.277Z,21.68
2019-02-17T19:35:14.572Z,19.87
2019-02-17T19:37:43.071Z,17.55
2019-02-17T19:40:13.365Z,20.97
2019-02-17T19:42:42.024Z,17.50
2019-02-17T19:45:15.425Z,20.08
2019-02-17T19:47:43.887Z,15.58
2019-02-17T19:50:13.972Z,19.90
2019-02-17T19:52:42.435Z,17.67
2019-02-17T19:55:12.187Z,19.02
2019-02-17T19:57:40.705Z,18.17
2019-02-17T20:00:12.325Z,19.75
2019-02-17T20:03:00.308Z,17.48
2019-02-17T20:05:30.448Z,20.77
2019-02-17T20:07:58.935Z,26.75
2019-02-17T20:10:27.471Z,24.57
2019-02-17T20:12:56.387Z,22.85
2019-02-17T20:15:26.552Z,18.42
2019-02-17T20:17:55.046Z,20.82
2019-02-17T20:20:23.550Z,17.23
2019-02-17T20:22:52.007Z,21.82
2019-02-17T20:25:20.439Z,25.95
2019-02-17T20:27:48.908Z,24.80
2019-02-17T20:30:17.350Z,20.77
2019-02-17T20:32:45.824Z,21.65
2019-02-17T20:35:14.314Z,21.75
2019-02-17T20:37:42.755Z,20.82
2019-02-17T20:40:16.062Z,26.20
2019-02-17T20:42:44.499Z,22.87
2019-02-17T20:45:13.209Z,21.60
2019-02-17T20:47:41.650Z,23.35
2019-02-17T20:50:12.818Z,23.05
2019-02-17T20:52:41.263Z,20.55
2019-02-17T20:55:11.468Z,19.15
2019-02-17T20:57:39.893Z,22.80
2019-02-17T21:00:13.549Z,17.52
2019-02-17T21:02:42.104Z,18.00
2019-02-17T21:05:11.099Z,19.95
2019-02-17T21:07:39.550Z,17.02
2019-02-17T21:10:10.526Z,19.02
2019-02-17T21:12:39.103Z,17.75
2019-02-17T21:15:16.509Z,20.27
2019-02-17T21:17:44.945Z,19.70
2019-02-17T21:20:13.683Z,18.98
2019-02-17T21:22:42.114Z,23.73
2019-02-17T21:25:12.114Z,19.32
2019-02-17T21:27:40.617Z,19.37
2019-02-17T21:30:14.735Z,22.02
2019-02-17T21:32:43.240Z,17.15
2019-02-17T21:35:13.632Z,20.08
2019-02-17T21:37:42.063Z,21.55
2019-02-17T21:40:12.462Z,24.52
2019-02-17T21:42:40.951Z,22.90
2019-02-17T21:45:13.687Z,24.40
2019-02-17T21:47:42.186Z,21.42
2019-02-17T21:50:14.588Z,23.05
2019-02-17T21:52:43.083Z,23.90
2019-02-17T21:55:12.888Z,16.70
2019-02-17T21:57:41.390Z,20.02
2019-02-17T22:00:20.604Z,21.15
2019-02-17T22:02:49.091Z,23.60
2019-02-17T22:05:17.611Z,23.07
2019-02-17T22:07:46.038Z,21.17
2019-02-17T22:10:16.508Z,21.65
2019-02-17T22:12:44.994Z,19.82
2019-02-17T22:15:18.015Z,20.77
2019-02-17T22:17:46.459Z,26.15
2019-02-17T22:20:15.159Z,22.85
2019-02-17T22:22:43.670Z,19.87
2019-02-17T22:25:13.934Z,23.50
2019-02-17T22:27:42.400Z,23.92
2019-02-17T22:30:13.912Z,20.50
2019-02-17T22:32:42.427Z,22.17
2019-02-17T22:35:11.091Z,19.20
2019-02-17T22:37:39.579Z,19.65
2019-02-17T22:40:14.878Z,23.57
2019-02-17T22:42:43.341Z,26.80
2019-02-17T22:45:12.635Z,21.07
2019-02-17T22:47:41.283Z,24.32
2019-02-17T22:50:14.362Z,20.37
2019-02-17T22:52:44.150Z,23.92
2019-02-17T22:55:13.528Z,25.25
2019-02-17T22:57:42.077Z,22.45
2019-02-17T23:00:30.383Z,26.80
2019-02-17T23:02:59.019Z,22.77
2019-02-17T23:05:27.443Z,23.00
2019-02-17T23:07:55.914Z,19.55
2019-02-17T23:10:24.417Z,24.02
2019-02-17T23:12:52.843Z,24.95
2019-02-17T23:15:21.284Z,18.70
2019-02-17T23:17:49.735Z,22.65
2019-02-17T23:20:18.174Z,20.15
2019-02-17T23:22:46.626Z,23.95
2019-02-17T23:25:15.294Z,26.87
2019-02-17T23:27:43.737Z,22.00
2019-02-17T23:30:12.322Z,23.15
2019-02-17T23:32:40.747Z,21.75
2019-02-17T23:35:09.198Z,25.30
2019-02-17T23:37:37.622Z,22.02
2019-02-17T23:40:09.167Z,26.45
2019-02-17T23:42:37.665Z,23.40
2019-02-17T23:45:08.719Z,23.40
2019-02-17T23:47:37.165Z,25.92
2019-02-17T23:50:07.940Z,34.43
2019-02-17T23:52:36.367Z,31.12
2019-02-17T23:55:05.255Z,32.33
2019-02-17T23:57:33.682Z,29.60
